Time;durP1;ratioP1;P1;durP2;ratioP2;P2;SDS_P1;SDS_P2;PMS_P1;PMS_P2;Temp;Humidity;BMP_temperature;BMP_pressure;BME280_temperature;BME280_humidity;BME280_pressure;Samples;Min_cycle;Max_cycle;Signal;HPM_P1;HPM_P2
2021/11/09 00:00:14;;;;;;;19.38;12.40;;;9.30;77.20;;;;;;5035162;28;20013;-75
2021/11/09 00:02:42;;;;;;;18.05;11.75;;;9.20;77.50;;;;;;5035258;28;20057;-75
2021/11/09 00:05:11;;;;;;;17.35;12.40;;;9.10;77.80;;;;;;5020588;28;20113;-75
2021/11/09 00:08:00;;;;;;;18.48;12.05;;;9.10;78.10;;;;;;5035350;28;20017;-75
2021/11/09 00:10:24;;;;;;;19.60;12.05;;;9.10;78.30;;;;;;5034775;28;20375;-75
2021/11/09 00:12:56;;;;;;;18.67;11.77;;;9.10;78.10;;;;;;5033712;28;20057;-75
2021/11/09 00:15:23;;;;;;;20.13;12.38;;;9.20;78.10;;;;;;5034873;28;20120;-75
2021/11/09 00:17:53;;;;;;;18.67;11.30;;;9.20;77.80;;;;;;5035021;28;20124;-76
2021/11/09 00:20:21;;;;;;;17.90;10.93;;;9.20;77.60;;;;;;5020173;28;20022;-76
2021/11/09 00:22:47;;;;;;;18.38;11.30;;;9.30;77.40;;;;;;5040544;28;20177;-75
2021/11/09 00:25:14;;;;;;;16.23;10.93;;;9.30;77.10;;;;;;5041677;28;20087;-74
2021/11/09 00:27:40;;;;;;;14.38;10.60;;;9.30;77.00;;;;;;5021578;28;20363;-75
2021/11/09 00:30:08;;;;;;;14.15;10.70;;;9.30;76.90;;;;;;5033869;28;20029;-75
2021/11/09 00:32:34;;;;;;;16.67;10.55;;;9.30;76.90;;;;;;5033593;28;20025;-75
2021/11/09 00:35:00;;;;;;;17.48;11.30;;;9.20;77.10;;;;;;5034703;28;20466;-76
2021/11/09 00:37:26;;;;;;;15.43;10.80;;;9.10;77.40;;;;;;5033325;28;20021;-75
2021/11/09 00:39:52;;;;;;;13.68;10.05;;;9.10;77.80;;;;;;5034640;28;20024;-75
2021/11/09 00:42:18;;;;;;;14.43;10.27;;;9.00;77.90;;;;;;5034815;28;20021;-74
2021/11/09 00:44:44;;;;;;;14.43;9.93;;;9.00;78.20;;;;;;5033234;28;20381;-75
2021/11/09 00:47:10;;;;;;;13.65;9.25;;;8.90;78.50;;;;;;5033322;28;20060;-75
2021/11/09 00:49:37;;;;;;;13.85;9.77;;;8.90;78.70;;;;;;5033137;28;20021;-75
2021/11/09 00:52:04;;;;;;;13.43;9.88;;;8.90;78.90;;;;;;5034760;28;20379;-75
2021/11/09 00:54:30;;;;;;;14.60;9.90;;;8.80;79.30;;;;;;5034026;28;20024;-75
2021/11/09 00:56:56;;;;;;;15.20;9.38;;;8.70;79.40;;;;;;5034002;28;20018;-75
2021/11/09 00:59:22;;;;;;;15.70;9.63;;;8.70;79.70;;;;;;5034617;28;20028;-74
2021/11/09 01:01:48;;;;;;;13.27;8.77;;;8.70;79.80;;;;;;5033116;28;20018;-75
2021/11/09 01:04:13;;;;;;;12.52;8.68;;;8.70;80.00;;;;;;5033052;28;20021;-75
2021/11/09 01:06:39;;;;;;;13.02;9.13;;;8.70;80.30;;;;;;5032726;28;20379;-74
2021/11/09 01:09:06;;;;;;;10.38;8.57;;;8.70;80.30;;;;;;5034074;28;20467;-75
2021/11/09 01:11:33;;;;;;;12.93;9.27;;;8.70;80.30;;;;;;5032687;28;20022;-75
2021/11/09 01:14:00;;;;;;;14.40;11.43;;;8.80;80.30;;;;;;5032664;28;20341;-75
2021/11/09 01:16:25;;;;;;;16.10;12.35;;;8.80;80.00;;;;;;5034189;28;20040;-74
2021/11/09 01:18:55;;;;;;;15.23;12.68;;;8.80;80.00;;;;;;5039273;28;20084;-74
2021/11/09 01:21:23;;;;;;;15.45;12.27;;;8.80;79.80;;;;;;5039294;28;20021;-75
2021/11/09 01:23:52;;;;;;;14.90;10.85;;;8.80;80.00;;;;;;5032830;28;20033;-75
2021/11/09 01:26:18;;;;;;;13.80;10.30;;;8.80;79.70;;;;;;5032878;28;20037;-75
2021/11/09 01:28:49;;;;;;;14.40;9.60;;;8.80;79.50;;;;;;5032197;28;20040;-74
2021/11/09 01:31:14;;;;;;;10.95;8.57;;;8.90;79.40;;;;;;5033776;28;20025;-75
2021/11/09 01:33:40;;;;;;;13.30;9.27;;;8.90;79.30;;;;;;5032488;28;20048;-75
2021/11/09 01:36:07;;;;;;;12.35;8.30;;;8.90;79.10;;;;;;5032149;28;20060;-75
2021/11/09 01:38:33;;;;;;;13.88;9.02;;;8.90;79.00;;;;;;5032216;28;20452;-75
2021/11/09 01:41:00;;;;;;;13.43;8.82;;;9.00;79.00;;;;;;5032068;28;20100;-75
2021/11/09 01:43:28;;;;;;;19.02;10.43;;;9.00;78.60;;;;;;5032203;28;20137;-75
2021/11/09 01:45:56;;;;;;;18.33;12.02;;;9.10;78.30;;;;;;5031915;28;20029;-75
2021/11/09 01:48:22;;;;;;;19.38;12.77;;;9.20;78.00;;;;;;5032198;28;20055;-75
2021/11/09 01:50:56;;;;;;;18.05;11.88;;;9.10;77.70;;;;;;5031604;28;20070;-75
2021/11/09 01:53:22;;;;;;;17.00;11.15;;;9.10;77.60;;;;;;5024754;28;20029;-75
2021/11/09 01:55:49;;;;;;;16.45;10.48;;;9.10;77.50;;;;;;5031911;28;20029;-75
2021/11/09 01:58:17;;;;;;;12.65;8.50;;;9.20;77.30;;;;;;5033150;28;20458;-75
2021/11/09 02:00:55;;;;;;;12.20;7.60;;;9.20;77.00;;;;;;5031911;28;20024;-74
2021/11/09 02:03:22;;;;;;;11.27;7.55;;;9.20;76.70;;;;;;5031735;28;20057;-75
2021/11/09 02:05:49;;;;;;;10.45;7.00;;;9.20;76.50;;;;;;5033424;28;20100;-75
2021/11/09 02:08:16;;;;;;;11.68;7.30;;;9.20;76.30;;;;;;5031087;28;20064;-74
2021/11/09 02:10:44;;;;;;;11.05;6.78;;;9.30;76.20;;;;;;5033100;28;20031;-75
2021/11/09 02:13:10;;;;;;;9.57;6.82;;;9.30;76.00;;;;;;5033147;28;20357;-75
2021/11/09 02:15:37;;;;;;;11.40;7.03;;;9.30;75.70;;;;;;5039949;28;20041;-75
2021/11/09 02:18:05;;;;;;;12.65;6.90;;;9.30;76.30;;;;;;5039181;28;20072;-75
2021/11/09 02:20:32;;;;;;;11.02;6.60;;;9.30;75.60;;;;;;5028760;28;20014;-70
2021/11/09 02:22:59;;;;;;;10.05;6.57;;;9.30;75.70;;;;;;5027615;28;20104;-68
2021/11/09 02:25:27;;;;;;;10.05;6.82;;;9.30;75.80;;;;;;5029727;28;20037;-68
2021/11/09 02:27:53;;;;;;;12.00;8.13;;;9.30;75.70;;;;;;5032159;28;20018;-69
2021/11/09 02:30:24;;;;;;;8.77;6.20;;;9.30;75.60;;;;;;5031332;28;20022;-69
2021/11/09 02:32:52;;;;;;;10.52;6.78;;;9.30;75.60;;;;;;5031672;28;20022;-68
2021/11/09 02:35:19;;;;;;;8.95;6.13;;;9.40;75.50;;;;;;5031768;28;20045;-68
2021/11/09 02:37:45;;;;;;;9.25;6.10;;;9.30;75.50;;;;;;5032602;28;20439;-68
2021/11/09 02:40:11;;;;;;;9.30;6.53;;;9.30;75.50;;;;;;5032822;28;20145;-68
2021/11/09 02:42:41;;;;;;;9.10;5.88;;;9.30;75.50;;;;;;5031191;28;20028;-69
2021/11/09 02:45:15;;;;;;;11.70;6.93;;;9.30;75.50;;;;;;5031497;28;20064;-69
2021/11/09 02:47:48;;;;;;;8.77;6.40;;;9.30;75.50;;;;;;5031464;28;20034;-69
2021/11/09 02:50:16;;;;;;;10.68;6.38;;;9.30;75.30;;;;;;5031835;28;20017;-69
2021/11/09 02:53:26;;;;;;;8.48;6.63;;;9.30;75.40;;;;;;5029919;28;20345;-69
2021/11/09 02:55:47;;;;;;;9.43;6.00;;;9.20;75.50;;;;;;5031937;28;20033;-69
2021/11/09 02:58:28;;;;;;;11.07;6.18;;;9.20;75.80;;;;;;5032735;28;20104;-68
2021/11/09 03:01:14;;;;;;;8.75;6.13;;;9.20;75.90;;;;;;5028971;28;20013;-69
2021/11/09 03:03:49;;;;;;;8.60;6.30;;;9.20;75.90;;;;;;5031186;28;20025;-69
2021/11/09 03:08:46;;;;;;;10.18;6.85;;;9.20;75.80;;;;;;5032470;28;20400;-68
2021/11/09 03:11:12;;;;;;;12.13;7.75;;;9.20;75.80;;;;;;5034057;28;20017;-68
2021/11/09 03:13:42;;;;;;;9.38;7.05;;;9.30;75.90;;;;;;5033745;28;20052;-68
2021/11/09 03:16:11;;;;;;;10.68;6.72;;;9.30;75.90;;;;;;5031269;28;20030;-68
2021/11/09 03:18:42;;;;;;;10.80;6.90;;;9.20;75.80;;;;;;5031109;28;20025;-68
2021/11/09 03:45:19;;;;;;;11.40;7.40;;;9.00;77.40;;;;;;5035809;28;20068;-69
2021/11/09 03:47:49;;;;;;;10.85;7.00;;;9.00;77.50;;;;;;5034256;28;20017;-68
2021/11/09 03:50:18;;;;;;;10.45;7.40;;;9.00;77.60;;;;;;5034465;28;20022;-69
2021/11/09 03:52:51;;;;;;;11.63;7.70;;;9.00;77.60;;;;;;5034008;28;20395;-69
2021/11/09 03:55:36;;;;;;;13.23;7.60;;;9.10;77.70;;;;;;5035554;28;20363;-69
2021/11/09 04:05:42;;;;;;;13.32;7.32;;;9.10;77.90;;;;;;5035612;28;20047;-67
2021/11/09 04:08:29;;;;;;;12.25;6.95;;;9.10;78.00;;;;;;5035685;28;20025;-68
2021/11/09 05:08:15;;;;;;;11.68;7.97;;;8.40;81.30;;;;;;5035423;28;20075;-68
2021/11/09 05:08:50;;;;;;;11.27;8.30;;;8.20;81.90;;;;;;5034183;28;20041;-67
2021/11/09 05:11:17;;;;;;;15.18;9.38;;;8.20;82.30;;;;;;5033599;28;20070;-68
2021/11/09 05:13:43;;;;;;;15.15;9.55;;;8.20;82.60;;;;;;5033665;28;20016;-69
2021/11/09 05:16:08;;;;;;;13.30;9.10;;;8.10;83.00;;;;;;5032154;28;20026;-69
2021/11/09 05:18:34;;;;;;;13.70;8.85;;;8.10;83.10;;;;;;5032680;28;20017;-69
2021/11/09 05:21:00;;;;;;;13.25;9.73;;;8.20;83.30;;;;;;5033611;28;20025;-69
2021/11/09 05:23:27;;;;;;;14.70;9.93;;;8.20;83.40;;;;;;5031934;28;20459;-69
2021/11/09 05:25:52;;;;;;;16.55;10.50;;;8.20;83.60;;;;;;5032764;28;20482;-69
2021/11/09 05:28:18;;;;;;;15.13;10.23;;;8.20;84.00;;;;;;5027600;28;20017;-70
2021/11/09 05:30:48;;;;;;;15.65;10.55;;;8.20;84.20;;;;;;5030443;28;20087;-69
2021/11/09 05:33:15;;;;;;;14.02;10.23;;;8.20;84.50;;;;;;5025497;28;20018;-70
2021/11/09 05:35:41;;;;;;;16.33;10.40;;;8.20;84.50;;;;;;5013589;28;20029;-70
2021/11/09 05:38:08;;;;;;;16.70;10.15;;;8.30;84.60;;;;;;5025903;28;20048;-71
2021/11/09 05:40:37;;;;;;;15.18;9.75;;;8.40;84.40;;;;;;5031322;28;20511;-69
2021/11/09 05:43:04;;;;;;;19.25;10.60;;;8.40;84.50;;;;;;5032597;28;20073;-69
2021/11/09 05:45:30;;;;;;;15.88;10.30;;;8.50;84.20;;;;;;5029502;28;20573;-67
2021/11/09 05:47:56;;;;;;;16.65;10.73;;;8.60;83.90;;;;;;5030758;28;20032;-67
2021/11/09 05:50:22;;;;;;;15.07;9.32;;;8.60;83.60;;;;;;5030330;28;20013;-72
2021/11/09 05:52:48;;;;;;;14.15;9.30;;;8.70;83.50;;;;;;5033363;28;20052;-71
2021/11/09 05:55:14;;;;;;;14.35;9.38;;;8.60;83.40;;;;;;5030861;28;20041;-69
2021/11/09 05:57:40;;;;;;;11.23;8.45;;;8.70;83.50;;;;;;5031138;28;20032;-68
2021/11/09 06:00:08;;;;;;;11.13;8.57;;;8.70;83.30;;;;;;5037138;28;20018;-68
2021/11/09 06:02:34;;;;;;;12.80;9.15;;;8.70;83.40;;;;;;5024990;28;20022;-69
2021/11/09 06:04:59;;;;;;;12.10;7.72;;;8.80;83.40;;;;;;5023384;28;20334;-69
2021/11/09 06:07:25;;;;;;;9.98;7.03;;;8.80;83.10;;;;;;5023988;28;20447;-73
2021/11/09 06:09:51;;;;;;;9.10;6.63;;;8.80;82.70;;;;;;5030168;28;20021;-77
2021/11/09 06:12:16;;;;;;;9.98;6.68;;;8.80;82.10;;;;;;5032208;28;20494;-77
2021/11/09 06:14:42;;;;;;;5.82;4.80;;;8.80;81.70;;;;;;5027849;28;20083;-78
2021/11/09 06:17:08;;;;;;;6.57;4.20;;;8.70;81.10;;;;;;5022837;28;20025;-76
2021/11/09 06:19:34;;;;;;;7.93;4.00;;;8.70;80.50;;;;;;5025027;28;20025;-78
2021/11/09 06:22:01;;;;;;;4.72;3.60;;;8.70;80.20;;;;;;5035632;28;20025;-72
2021/11/09 06:24:27;;;;;;;4.30;3.10;;;8.70;80.50;;;;;;5029065;28;20060;-74
2021/11/09 06:26:53;;;;;;;4.18;3.10;;;8.80;79.80;;;;;;5026366;28;20030;-71
2021/11/09 06:29:20;;;;;;;4.18;2.88;;;8.90;79.40;;;;;;5022566;28;20116;-72
2021/11/09 06:31:45;;;;;;;9.02;4.68;;;8.90;78.80;;;;;;5024126;28;20036;-70
2021/11/09 06:34:11;;;;;;;5.38;2.90;;;8.90;78.70;;;;;;5022810;28;20034;-73
2021/11/09 06:36:37;;;;;;;4.00;3.20;;;8.80;78.60;;;;;;5028090;28;20395;-75
2021/11/09 06:39:03;;;;;;;5.45;3.58;;;8.80;78.70;;;;;;5031520;28;20113;-71
2021/11/09 06:41:28;;;;;;;5.68;3.40;;;8.70;78.90;;;;;;5024264;28;20026;-71
2021/11/09 06:43:55;;;;;;;5.25;3.60;;;8.70;79.10;;;;;;5027845;28;20042;-70
2021/11/09 06:46:21;;;;;;;4.47;3.60;;;8.60;79.30;;;;;;5023642;28;20064;-70
2021/11/09 06:48:47;;;;;;;6.10;4.57;;;8.60;79.40;;;;;;5016012;28;20116;-70
2021/11/09 06:51:13;;;;;;;6.10;4.47;;;8.60;79.70;;;;;;5011982;28;20529;-69
2021/11/09 06:53:39;;;;;;;7.75;4.65;;;8.60;80.10;;;;;;5030053;28;20025;-70
2021/11/09 06:56:05;;;;;;;6.03;4.28;;;8.60;80.50;;;;;;5026535;28;20025;-69
2021/11/09 06:58:34;;;;;;;6.13;4.10;;;8.60;80.60;;;;;;5025195;28;20522;-70
2021/11/09 07:01:01;;;;;;;6.25;4.15;;;8.60;80.40;;;;;;5027438;28;20456;-69
2021/11/09 07:03:26;;;;;;;5.22;4.15;;;8.60;80.50;;;;;;5022286;28;20049;-70
2021/11/09 07:05:52;;;;;;;5.43;4.50;;;8.60;80.20;;;;;;5033937;28;20075;-70
2021/11/09 07:08:18;;;;;;;5.32;4.30;;;8.60;80.10;;;;;;5018743;28;20034;-70
2021/11/09 07:10:44;;;;;;;6.85;4.00;;;8.60;79.90;;;;;;5018418;28;20026;-70
2021/11/09 07:13:11;;;;;;;4.93;3.40;;;8.60;79.90;;;;;;5028109;28;20454;-70
2021/11/09 07:15:37;;;;;;;6.45;3.78;;;8.50;79.60;;;;;;5040860;28;20018;-68
2021/11/09 07:18:03;;;;;;;5.53;3.50;;;8.50;79.40;;;;;;5034042;28;20027;-70
2021/11/09 07:20:31;;;;;;;5.40;3.28;;;8.50;79.60;;;;;;5036039;28;20455;-74
2021/11/09 07:23:00;;;;;;;5.20;3.60;;;8.50;78.80;;;;;;5036668;28;20024;-71
2021/11/09 07:25:26;;;;;;;5.28;3.20;;;8.40;78.60;;;;;;5035794;28;20025;-74
2021/11/09 07:27:52;;;;;;;5.70;3.90;;;8.30;78.70;;;;;;5031453;28;20014;-70
2021/11/09 07:30:18;;;;;;;4.47;3.10;;;8.30;78.70;;;;;;5031973;28;20450;-72
2021/11/09 07:32:46;;;;;;;5.03;3.20;;;8.30;78.90;;;;;;5036056;28;20470;-70
2021/11/09 07:35:13;;;;;;;6.20;3.22;;;8.20;78.90;;;;;;5023444;28;20145;-70
2021/11/09 07:37:39;;;;;;;4.20;3.22;;;8.20;78.60;;;;;;5025526;28;20029;-69
2021/11/09 07:40:06;;;;;;;4.30;3.05;;;8.20;78.50;;;;;;5019922;28;20051;-70
2021/11/09 07:42:32;;;;;;;6.07;3.38;;;8.10;78.00;;;;;;5025770;28;20049;-69
2021/11/09 07:44:58;;;;;;;5.93;3.25;;;8.10;77.90;;;;;;5028199;28;20064;-68
2021/11/09 07:47:24;;;;;;;5.88;3.70;;;8.00;77.90;;;;;;5021569;28;20087;-70
2021/11/09 07:49:51;;;;;;;4.18;2.90;;;8.00;77.70;;;;;;5025959;28;20029;-70
2021/11/09 07:52:16;;;;;;;3.80;2.83;;;8.00;77.70;;;;;;5044510;28;20022;-70
2021/11/09 07:54:46;;;;;;;6.25;3.45;;;8.00;77.80;;;;;;5034628;28;20032;-71
2021/11/09 07:57:14;;;;;;;4.55;3.10;;;7.90;77.80;;;;;;5024854;28;20013;-70
2021/11/09 07:59:56;;;;;;;4.18;3.50;;;7.90;78.10;;;;;;5026783;28;20050;-70
2021/11/09 08:02:33;;;;;;;6.57;3.42;;;7.90;78.30;;;;;;5030494;28;20021;-69
2021/11/09 08:05:04;;;;;;;7.68;3.85;;;7.90;78.30;;;;;;5058300;28;20118;-69
2021/11/09 08:07:33;;;;;;;4.32;3.65;;;7.90;77.90;;;;;;5020060;28;20375;-71
2021/11/09 08:09:59;;;;;;;5.82;4.22;;;8.00;77.20;;;;;;5035406;28;20052;-69
2021/11/09 08:12:25;;;;;;;4.78;3.90;;;8.00;76.90;;;;;;5035402;28;20430;-70
2021/11/09 08:14:51;;;;;;;7.28;4.50;;;8.10;77.00;;;;;;5033609;28;20112;-70
2021/11/09 08:17:18;;;;;;;5.60;3.55;;;8.30;76.80;;;;;;5033786;28;20060;-71
2021/11/09 08:19:43;;;;;;;6.00;3.53;;;8.40;76.10;;;;;;5033543;28;20067;-69
2021/11/09 08:22:09;;;;;;;6.22;3.92;;;8.70;75.90;;;;;;5034938;28;20029;-69
2021/11/09 08:24:35;;;;;;;3.95;2.97;;;9.30;75.50;;;;;;5033243;28;20028;-70
2021/11/09 08:27:06;;;;;;;3.55;2.88;;;10.00;73.40;;;;;;5033545;28;20448;-70
2021/11/09 08:29:33;;;;;;;4.13;3.40;;;10.20;70.10;;;;;;5035215;28;20032;-70
2021/11/09 08:31:59;;;;;;;4.35;2.95;;;10.20;69.00;;;;;;5033411;28;20017;-71
2021/11/09 08:34:31;;;;;;;4.60;2.70;;;10.40;69.60;;;;;;5033519;28;20075;-70
2021/11/09 08:36:59;;;;;;;3.78;2.15;;;11.20;68.70;;;;;;5033146;28;20529;-70
2021/11/09 08:39:37;;;;;;;3.95;2.20;;;12.30;67.30;;;;;;5033385;28;20025;-70
2021/11/09 08:44:37;;;;;;;3.95;2.50;;;13.90;61.70;;;;;;5034900;28;20061;-70
2021/11/09 08:47:04;;;;;;;3.40;2.55;;;14.50;60.50;;;;;;5039120;28;20022;-70
2021/11/09 08:49:30;;;;;;;4.00;1.98;;;15.30;58.00;;;;;;5041587;28;20018;-70
2021/11/09 08:51:59;;;;;;;2.75;1.98;;;15.70;56.20;;;;;;5034710;28;20037;-69
2021/11/09 08:54:28;;;;;;;2.90;2.05;;;16.00;53.90;;;;;;5034980;28;20032;-70
2021/11/09 09:05:08;;;;;;;2.58;1.88;;;16.20;52.70;;;;;;5034214;28;20087;-70
2021/11/09 09:07:35;;;;;;;2.80;1.85;;;15.90;51.40;;;;;;5033742;28;20026;-68
2021/11/09 09:10:13;;;;;;;2.83;1.75;;;15.90;51.80;;;;;;5032777;28;20064;-68
2021/11/09 09:12:41;;;;;;;3.03;1.52;;;16.30;51.50;;;;;;5033646;28;20029;-69
2021/11/09 09:15:09;;;;;;;2.63;1.60;;;16.70;50.40;;;;;;5032704;28;20032;-68
2021/11/09 09:17:35;;;;;;;2.65;1.90;;;16.60;49.30;;;;;;5033709;28;20041;-69
2021/11/09 09:20:10;;;;;;;3.35;2.10;;;15.90;49.00;;;;;;5032459;28;20021;-70
2021/11/09 09:22:56;;;;;;;2.67;1.90;;;14.90;49.80;;;;;;5034004;28;20048;-70
2021/11/09 09:25:41;;;;;;;4.13;2.20;;;14.20;51.60;;;;;;5032621;28;20308;-69
2021/11/09 09:57:27;;;;;;;4.33;2.37;;;10.70;57.80;;;;;;5033075;28;20414;-70
2021/11/09 09:59:55;;;;;;;3.55;2.28;;;10.80;58.50;;;;;;5032246;28;20095;-69
2021/11/09 10:02:26;;;;;;;3.33;2.05;;;10.90;58.10;;;;;;5031724;28;20530;-69
2021/11/09 10:05:06;;;;;;;3.20;2.00;;;11.40;58.30;;;;;;5031538;28;20459;-69
2021/11/09 10:07:40;;;;;;;2.95;2.00;;;12.50;57.30;;;;;;5031730;28;20021;-69
2021/11/09 10:10:09;;;;;;;3.30;2.13;;;12.90;54.50;;;;;;5033073;28;20020;-69
2021/11/09 10:12:37;;;;;;;2.88;2.13;;;12.50;54.20;;;;;;5032959;28;20022;-69
2021/11/09 10:15:17;;;;;;;3.13;2.20;;;12.20;54.30;;;;;;5032956;28;20024;-69
2021/11/09 10:17:46;;;;;;;7.22;4.40;;;12.60;55.20;;;;;;5031855;28;20018;-69
2021/11/09 10:20:16;;;;;;;5.05;3.40;;;12.90;54.20;;;;;;5032013;28;20128;-70
2021/11/09 10:22:44;;;;;;;3.33;2.28;;;12.70;53.40;;;;;;5032787;28;20018;-70
2021/11/09 10:25:14;;;;;;;4.05;2.85;;;12.20;53.80;;;;;;5033085;28;20044;-69
2021/11/09 10:27:42;;;;;;;4.10;2.60;;;11.70;54.60;;;;;;5031438;28;20033;-69
2021/11/09 10:30:16;;;;;;;3.97;2.88;;;11.60;54.60;;;;;;5034079;28;20030;-70
2021/11/09 10:32:42;;;;;;;4.20;2.80;;;11.40;55.40;;;;;;5036912;28;20117;-70
2021/11/09 10:35:10;;;;;;;2.95;2.40;;;11.90;55.30;;;;;;5036924;28;20112;-70
2021/11/09 10:37:38;;;;;;;3.97;2.45;;;12.10;54.70;;;;;;5036904;28;20029;-68
2021/11/09 10:40:11;;;;;;;3.00;2.20;;;12.70;55.10;;;;;;5039579;28;20481;-70
2021/11/09 10:42:42;;;;;;;3.20;2.00;;;13.70;53.20;;;;;;5042354;28;20214;-70
2021/11/09 10:45:10;;;;;;;4.88;2.67;;;14.50;51.10;;;;;;5036647;28;20037;-70
2021/11/09 10:47:41;;;;;;;3.47;1.98;;;14.30;49.60;;;;;;5035838;28;20037;-68
2021/11/09 10:50:09;;;;;;;3.70;2.25;;;13.40;49.50;;;;;;5035361;28;20214;-69
2021/11/09 10:52:38;;;;;;;5.53;2.15;;;12.60;50.70;;;;;;5036475;28;20048;-69
2021/11/09 10:58:28;;;;;;;3.30;2.17;;;11.70;52.30;;;;;;5017199;28;20029;-69
2021/11/09 11:06:12;;;;;;;6.43;3.13;;;10.70;54.30;;;;;;5036071;28;20083;-71
2021/11/09 11:08:39;;;;;;;3.78;2.85;;;10.40;55.10;;;;;;5034793;28;20025;-71
2021/11/09 11:11:27;;;;;;;3.50;2.53;;;10.30;54.70;;;;;;5034853;28;20060;-72
2021/11/09 11:13:55;;;;;;;5.05;2.03;;;10.00;55.60;;;;;;5035207;28;20026;-69
2021/11/09 11:16:25;;;;;;;3.72;2.70;;;9.70;56.40;;;;;;5036217;28;20443;-70
2021/11/09 11:18:54;;;;;;;3.17;2.22;;;9.40;57.10;;;;;;5035901;28;20061;-70
2021/11/09 11:21:22;;;;;;;4.00;2.45;;;9.20;57.70;;;;;;5035922;28;20029;-71
2021/11/09 11:23:49;;;;;;;4.78;2.45;;;9.10;58.20;;;;;;5034571;28;20028;-69
2021/11/09 11:26:16;;;;;;;3.25;2.30;;;8.90;58.10;;;;;;5035667;28;20026;-69
2021/11/09 11:28:45;;;;;;;3.33;2.30;;;8.70;58.40;;;;;;5034537;28;20463;-69
2021/11/09 11:31:12;;;;;;;2.45;2.10;;;8.60;58.70;;;;;;5034543;28;20033;-71
2021/11/09 11:33:40;;;;;;;3.03;2.40;;;8.50;59.10;;;;;;5035814;28;20029;-70
2021/11/09 11:36:06;;;;;;;2.30;2.00;;;8.40;59.30;;;;;;5037580;28;20100;-70
2021/11/09 11:38:34;;;;;;;2.58;2.00;;;8.40;59.00;;;;;;5042697;28;20017;-70
2021/11/09 11:41:02;;;;;;;3.08;2.22;;;8.30;58.80;;;;;;5038811;28;20033;-70
2021/11/09 11:43:43;;;;;;;6.20;3.75;;;8.20;59.10;;;;;;5037126;28;20055;-69
2021/11/09 11:46:38;;;;;;;3.97;2.30;;;8.10;59.50;;;;;;5034331;28;20029;-70
2021/11/09 11:49:06;;;;;;;3.83;2.90;;;8.10;59.70;;;;;;5033690;28;20435;-69
2021/11/09 11:51:35;;;;;;;5.00;2.80;;;8.00;60.00;;;;;;5028311;28;20025;-70
2021/11/09 11:54:00;;;;;;;4.70;2.80;;;7.90;60.10;;;;;;5035154;28;20104;-70
2021/11/09 11:56:38;;;;;;;3.92;2.60;;;7.90;60.10;;;;;;5034254;28;20400;-69
2021/11/09 11:59:06;;;;;;;3.05;2.55;;;7.80;60.10;;;;;;5033645;28;20025;-69
2021/11/09 12:01:42;;;;;;;2.85;2.45;;;7.80;60.20;;;;;;5034075;28;20410;-69
2021/11/09 12:04:09;;;;;;;3.63;2.50;;;7.70;60.50;;;;;;5033942;28;20049;-69
2021/11/09 12:06:51;;;;;;;7.60;2.90;;;7.60;60.90;;;;;;5035390;28;20100;-70
2021/11/09 12:09:37;;;;;;;4.95;3.38;;;7.50;61.50;;;;;;5033855;28;20382;-69
2021/11/09 12:12:11;;;;;;;5.63;3.58;;;7.40;61.80;;;;;;5035306;28;20071;-70
2021/11/09 12:15:07;;;;;;;4.28;2.90;;;7.40;61.70;;;;;;5034991;28;20029;-70
2021/11/09 12:17:35;;;;;;;5.70;3.22;;;7.40;61.30;;;;;;5033883;28;20021;-69
2021/11/09 12:20:09;;;;;;;3.88;3.25;;;7.40;60.90;;;;;;5033363;28;20347;-71
2021/11/09 12:22:50;;;;;;;5.53;3.25;;;7.40;60.20;;;;;;5034066;28;20083;-69
2021/11/09 12:25:22;;;;;;;7.32;4.30;;;7.50;60.10;;;;;;5033559;28;20169;-71
2021/11/09 12:27:54;;;;;;;6.55;3.60;;;7.50;59.60;;;;;;5027614;28;20467;-70
2021/11/09 12:30:40;;;;;;;6.30;3.95;;;7.50;59.60;;;;;;5033682;28;20032;-71
2021/11/09 12:33:21;;;;;;;6.57;3.85;;;7.40;60.10;;;;;;5037533;28;20029;-69
2021/11/09 12:35:57;;;;;;;4.95;3.17;;;7.40;60.10;;;;;;5040535;28;20290;-70
2021/11/09 12:38:53;;;;;;;3.42;2.42;;;7.40;60.20;;;;;;5037945;28;20111;-69
2021/11/09 12:41:20;;;;;;;3.28;2.50;;;7.70;59.00;;;;;;5035087;28;20114;-70
2021/11/09 12:43:52;;;;;;;3.67;2.30;;;7.90;58.50;;;;;;5034750;28;20047;-70
2021/11/09 12:46:39;;;;;;;4.38;3.00;;;7.90;57.50;;;;;;5033707;28;20035;-70
2021/11/09 12:49:10;;;;;;;5.03;3.13;;;7.90;56.70;;;;;;5020861;28;20022;-71
2021/11/09 12:51:41;;;;;;;4.28;2.72;;;7.80;56.40;;;;;;5034575;28;20052;-70
2021/11/09 12:54:27;;;;;;;3.65;2.33;;;7.70;56.50;;;;;;5032935;28;20057;-69
2021/11/09 12:56:59;;;;;;;3.78;2.50;;;7.60;56.40;;;;;;5032589;28;20032;-70
2021/11/09 13:00:10;;;;;;;4.90;2.72;;;7.40;56.70;;;;;;5032931;28;20029;-70
2021/11/09 13:05:02;;;;;;;4.70;2.50;;;7.20;57.50;;;;;;5034052;28;20055;-71
2021/11/09 13:10:05;;;;;;;7.00;2.70;;;7.00;57.90;;;;;;5033862;28;20026;-69
2021/11/09 13:12:34;;;;;;;4.15;2.42;;;6.90;58.00;;;;;;5032908;28;20198;-70
2021/11/09 13:15:05;;;;;;;4.85;2.67;;;6.70;58.10;;;;;;5033785;28;20108;-70
2021/11/09 13:17:38;;;;;;;4.82;2.83;;;6.60;59.00;;;;;;5032788;28;20028;-69
2021/11/09 13:20:55;;;;;;;5.00;2.30;;;6.50;58.50;;;;;;5032448;28;20036;-69
2021/11/09 13:23:01;;;;;;;3.45;2.55;;;6.50;58.50;;;;;;5033023;28;20042;-70
2021/11/09 13:25:55;;;;;;;4.45;3.10;;;6.40;58.60;;;;;;5033900;28;20021;-70
2021/11/09 13:28:33;;;;;;;8.02;3.90;;;6.40;59.00;;;;;;5033363;28;20493;-69
2021/11/09 13:31:02;;;;;;;4.55;2.90;;;6.30;59.50;;;;;;5041292;28;20033;-69
2021/11/09 13:33:30;;;;;;;5.05;3.00;;;6.30;59.70;;;;;;5035816;28;20021;-69
2021/11/09 13:35:57;;;;;;;3.55;2.75;;;6.10;60.10;;;;;;5032538;28;20026;-70
2021/11/09 13:38:24;;;;;;;4.93;2.80;;;6.10;60.50;;;;;;5034133;28;20028;-69
2021/11/09 13:41:20;;;;;;;4.47;3.22;;;5.90;60.70;;;;;;5033335;28;20025;-69
2021/11/09 13:43:52;;;;;;;5.45;2.55;;;5.90;61.30;;;;;;5033438;28;20041;-70
2021/11/09 13:46:26;;;;;;;3.80;2.40;;;5.80;61.10;;;;;;5032228;28;20044;-70
2021/11/09 13:48:56;;;;;;;5.72;2.70;;;5.70;60.80;;;;;;5031817;28;20034;-70
2021/11/09 13:51:25;;;;;;;3.92;2.50;;;5.60;60.70;;;;;;5033455;28;20363;-70
2021/11/09 13:54:04;;;;;;;3.03;2.55;;;5.60;60.50;;;;;;5031690;28;20451;-70
2021/11/09 13:56:30;;;;;;;3.17;2.42;;;5.50;60.50;;;;;;5031877;28;20017;-70
2021/11/09 13:59:00;;;;;;;4.50;2.58;;;5.50;60.80;;;;;;5032739;28;20018;-69
2021/11/09 14:10:35;;;;;;;3.45;2.40;;;5.30;60.70;;;;;;5020342;28;20417;-70
2021/11/09 14:18:17;;;;;;;2.83;2.00;;;5.10;60.60;;;;;;5032933;28;20025;-70
2021/11/09 14:20:49;;;;;;;3.28;2.42;;;5.00;60.80;;;;;;5031425;28;20044;-70
2021/11/09 14:23:15;;;;;;;2.88;2.15;;;5.00;61.10;;;;;;5031782;28;20447;-70
2021/11/09 14:25:40;;;;;;;4.25;2.72;;;5.00;62.10;;;;;;5032964;28;20022;-70
2021/11/09 14:28:07;;;;;;;3.25;2.50;;;5.00;61.90;;;;;;5035692;28;20114;-70
2021/11/09 14:30:35;;;;;;;7.55;2.30;;;5.00;62.20;;;;;;5037577;28;20067;-69
2021/11/09 14:33:16;;;;;;;5.38;2.78;;;5.00;62.50;;;;;;5032559;28;20026;-72
2021/11/09 14:35:42;;;;;;;7.65;2.75;;;4.90;62.60;;;;;;5021308;28;20025;-70
2021/11/09 14:38:10;;;;;;;4.20;2.25;;;4.90;62.80;;;;;;5032815;28;20337;-70
2021/11/09 14:40:57;;;;;;;3.08;2.60;;;4.90;63.10;;;;;;5031736;28;20371;-70
2021/11/09 14:46:12;;;;;;;4.88;3.00;;;4.90;63.60;;;;;;5032577;28;20037;-70
2021/11/09 14:51:33;;;;;;;4.72;3.20;;;4.90;64.00;;;;;;5032775;28;20112;-70
2021/11/09 14:54:27;;;;;;;4.75;3.03;;;4.80;64.20;;;;;;5031359;28;20068;-71
2021/11/09 14:56:47;;;;;;;4.22;3.13;;;4.80;64.40;;;;;;5031921;28;20026;-70
2021/11/09 14:59:16;;;;;;;5.32;3.22;;;4.90;64.80;;;;;;5032362;28;20025;-70
2021/11/09 15:04:25;;;;;;;6.03;3.20;;;4.90;65.30;;;;;;5032551;28;20405;-70
2021/11/09 15:30:20;;;;;;;3.75;2.80;;;4.70;65.20;;;;;;5036398;28;20018;-70
2021/11/09 15:32:46;;;;;;;3.20;2.58;;;4.70;65.30;;;;;;5034617;28;20018;-70
2021/11/09 15:35:19;;;;;;;4.70;2.50;;;4.60;65.50;;;;;;5034617;28;20017;-69
2021/11/09 15:40:13;;;;;;;3.63;2.75;;;4.50;65.90;;;;;;5035306;28;20048;-70
2021/11/09 15:42:42;;;;;;;3.92;2.95;;;4.50;66.10;;;;;;5035789;28;20049;-71
2021/11/09 15:45:09;;;;;;;4.10;2.88;;;4.50;66.30;;;;;;5034235;28;20036;-70
2021/11/09 15:47:36;;;;;;;4.47;3.10;;;4.60;66.50;;;;;;5035586;28;20041;-70
2021/11/09 15:50:04;;;;;;;6.20;3.63;;;4.60;66.70;;;;;;5035291;28;20026;-72
2021/11/09 15:52:30;;;;;;;4.13;3.00;;;4.60;66.80;;;;;;5035389;28;20355;-70
2021/11/09 15:54:56;;;;;;;4.43;3.20;;;4.50;66.70;;;;;;5034188;28;20032;-70
2021/11/09 15:57:22;;;;;;;8.73;3.75;;;4.50;67.00;;;;;;5033849;28;20024;-70
2021/11/09 15:59:50;;;;;;;4.72;3.33;;;4.50;67.40;;;;;;5034187;28;20390;-70
2021/11/09 16:02:17;;;;;;;4.95;3.40;;;4.50;67.40;;;;;;5033978;28;20379;-69
2021/11/09 16:04:44;;;;;;;4.30;3.28;;;4.50;67.40;;;;;;5035233;28;20061;-70
2021/11/09 16:07:12;;;;;;;5.43;3.33;;;4.50;67.30;;;;;;5033684;28;20379;-70
2021/11/09 16:09:41;;;;;;;3.67;3.13;;;4.50;67.40;;;;;;5035263;28;20406;-71
2021/11/09 16:12:08;;;;;;;7.50;3.40;;;4.50;67.40;;;;;;5035208;28;20447;-70
2021/11/09 16:14:34;;;;;;;4.53;3.65;;;4.50;67.40;;;;;;5033860;28;20460;-71